sensor_id;sensor_type;location;lat;lon;timestamp;P1;durP1;ratioP1;P2;durP2;ratioP2
85835;SDS011;76292;47.678;19.066;2024-03-07T00:01:46;8.45;;;4.30;;
85835;SDS011;76292;47.678;19.066;2024-03-07T00:03:47;11.60;;;5.65;;
85835;SDS011;76292;47.678;19.066;2024-03-07T00:05:47;10.30;;;4.35;;
85835;SDS011;76292;47.678;19.066;2024-03-07T00:07:47;9.95;;;4.95;;
85835;SDS011;76292;47.678;19.066;2024-03-07T00:09:51;9.93;;;5.45;;
85835;SDS011;76292;47.678;19.066;2024-03-07T00:11:53;10.07;;;4.60;;
85835;SDS011;76292;47.678;19.066;2024-03-07T00:13:57;8.85;;;4.18;;
85835;SDS011;76292;47.678;19.066;2024-03-07T00:16:00;9.63;;;4.80;;
85835;SDS011;76292;47.678;19.066;2024-03-07T00:18:05;9.75;;;4.68;;
85835;SDS011;76292;47.678;19.066;2024-03-07T00:20:06;10.38;;;4.43;;
85835;SDS011;76292;47.678;19.066;2024-03-07T00:22:09;9.07;;;4.32;;
85835;SDS011;76292;47.678;19.066;2024-03-07T00:24:09;8.60;;;3.95;;
85835;SDS011;76292;47.678;19.066;2024-03-07T00:26:10;7.65;;;3.78;;
85835;SDS011;76292;47.678;19.066;2024-03-07T00:28:10;8.38;;;4.15;;
85835;SDS011;76292;47.678;19.066;2024-03-07T00:30:11;10.80;;;4.82;;
85835;SDS011;76292;47.678;19.066;2024-03-07T00:32:13;8.65;;;4.15;;
85835;SDS011;76292;47.678;19.066;2024-03-07T00:34:14;10.38;;;4.13;;
85835;SDS011;76292;47.678;19.066;2024-03-07T00:36:16;8.13;;;3.90;;
85835;SDS011;76292;47.678;19.066;2024-03-07T00:38:19;10.30;;;4.05;;
85835;SDS011;76292;47.678;19.066;2024-03-07T00:40:21;10.63;;;4.53;;
85835;SDS011;76292;47.678;19.066;2024-03-07T00:42:24;10.15;;;4.50;;
85835;SDS011;76292;47.678;19.066;2024-03-07T00:44:24;8.05;;;3.80;;
85835;SDS011;76292;47.678;19.066;2024-03-07T00:46:25;8.10;;;4.25;;
85835;SDS011;76292;47.678;19.066;2024-03-07T00:48:25;9.70;;;4.72;;
85835;SDS011;76292;47.678;19.066;2024-03-07T00:50:26;9.70;;;5.05;;
85835;SDS011;76292;47.678;19.066;2024-03-07T00:52:27;8.90;;;3.75;;
85835;SDS011;76292;47.678;19.066;2024-03-07T00:54:30;8.15;;;4.15;;
85835;SDS011;76292;47.678;19.066;2024-03-07T00:56:30;8.00;;;3.92;;
85835;SDS011;76292;47.678;19.066;2024-03-07T00:58:36;9.20;;;5.00;;
85835;SDS011;76292;47.678;19.066;2024-03-07T01:00:36;9.13;;;3.97;;
85835;SDS011;76292;47.678;19.066;2024-03-07T01:02:39;8.27;;;4.25;;
85835;SDS011;76292;47.678;19.066;2024-03-07T01:04:43;8.15;;;3.85;;
85835;SDS011;76292;47.678;19.066;2024-03-07T01:06:43;9.68;;;4.15;;
85835;SDS011;76292;47.678;19.066;2024-03-07T01:10:45;7.43;;;3.75;;
85835;SDS011;76292;47.678;19.066;2024-03-07T01:12:45;8.20;;;3.92;;
85835;SDS011;76292;47.678;19.066;2024-03-07T01:14:46;8.48;;;3.72;;
85835;SDS011;76292;47.678;19.066;2024-03-07T01:16:48;7.70;;;3.63;;
85835;SDS011;76292;47.678;19.066;2024-03-07T01:18:51;7.68;;;3.83;;
85835;SDS011;76292;47.678;19.066;2024-03-07T01:20:51;7.75;;;3.28;;
85835;SDS011;76292;47.678;19.066;2024-03-07T01:22:52;7.95;;;3.25;;
85835;SDS011;76292;47.678;19.066;2024-03-07T01:24:52;8.18;;;3.67;;
85835;SDS011;76292;47.678;19.066;2024-03-07T01:26:53;7.75;;;3.67;;
85835;SDS011;76292;47.678;19.066;2024-03-07T01:28:58;9.13;;;3.70;;
85835;SDS011;76292;47.678;19.066;2024-03-07T01:30:59;8.35;;;3.78;;
85835;SDS011;76292;47.678;19.066;2024-03-07T01:32:59;7.53;;;3.40;;
85835;SDS011;76292;47.678;19.066;2024-03-07T01:35:02;9.02;;;3.88;;
85835;SDS011;76292;47.678;19.066;2024-03-07T01:37:02;9.07;;;4.30;;
85835;SDS011;76292;47.678;19.066;2024-03-07T01:39:03;8.57;;;3.75;;
85835;SDS011;76292;47.678;19.066;2024-03-07T01:41:05;7.32;;;3.70;;
85835;SDS011;76292;47.678;19.066;2024-03-07T01:43:06;7.63;;;3.75;;
85835;SDS011;76292;47.678;19.066;2024-03-07T01:45:10;6.65;;;3.15;;
85835;SDS011;76292;47.678;19.066;2024-03-07T01:47:10;9.20;;;3.30;;
85835;SDS011;76292;47.678;19.066;2024-03-07T01:49:11;9.60;;;5.20;;
85835;SDS011;76292;47.678;19.066;2024-03-07T01:51:12;7.82;;;4.28;;
85835;SDS011;76292;47.678;19.066;2024-03-07T01:53:15;7.63;;;3.53;;
85835;SDS011;76292;47.678;19.066;2024-03-07T01:55:22;7.28;;;3.50;;
85835;SDS011;76292;47.678;19.066;2024-03-07T01:57:27;6.32;;;3.15;;
85835;SDS011;76292;47.678;19.066;2024-03-07T01:59:28;7.45;;;3.25;;
85835;SDS011;76292;47.678;19.066;2024-03-07T02:01:30;9.65;;;3.78;;
85835;SDS011;76292;47.678;19.066;2024-03-07T02:03:33;7.45;;;3.47;;
85835;SDS011;76292;47.678;19.066;2024-03-07T02:05:33;7.70;;;3.15;;
85835;SDS011;76292;47.678;19.066;2024-03-07T02:07:37;6.03;;;3.20;;
85835;SDS011;76292;47.678;19.066;2024-03-07T02:09:38;7.97;;;3.47;;
85835;SDS011;76292;47.678;19.066;2024-03-07T02:11:39;8.50;;;3.75;;
85835;SDS011;76292;47.678;19.066;2024-03-07T02:13:39;7.65;;;3.38;;
85835;SDS011;76292;47.678;19.066;2024-03-07T02:15:40;7.90;;;3.15;;
85835;SDS011;76292;47.678;19.066;2024-03-07T02:17:42;7.88;;;3.25;;
85835;SDS011;76292;47.678;19.066;2024-03-07T02:19:43;8.70;;;3.60;;
85835;SDS011;76292;47.678;19.066;2024-03-07T02:21:44;7.10;;;3.13;;
85835;SDS011;76292;47.678;19.066;2024-03-07T02:23:47;6.55;;;3.25;;
85835;SDS011;76292;47.678;19.066;2024-03-07T02:25:47;11.18;;;3.75;;
85835;SDS011;76292;47.678;19.066;2024-03-07T02:27:47;8.32;;;3.45;;
85835;SDS011;76292;47.678;19.066;2024-03-07T02:29:48;7.70;;;3.25;;
85835;SDS011;76292;47.678;19.066;2024-03-07T02:31:49;6.95;;;3.17;;
85835;SDS011;76292;47.678;19.066;2024-03-07T02:33:49;6.28;;;2.92;;
85835;SDS011;76292;47.678;19.066;2024-03-07T02:35:49;6.47;;;3.08;;
85835;SDS011;76292;47.678;19.066;2024-03-07T02:37:52;7.93;;;3.38;;
85835;SDS011;76292;47.678;19.066;2024-03-07T02:39:52;7.13;;;3.17;;
85835;SDS011;76292;47.678;19.066;2024-03-07T02:41:53;7.03;;;3.22;;
85835;SDS011;76292;47.678;19.066;2024-03-07T02:43:55;8.82;;;3.58;;
85835;SDS011;76292;47.678;19.066;2024-03-07T02:45:56;6.80;;;3.25;;
85835;SDS011;76292;47.678;19.066;2024-03-07T02:47:57;7.75;;;3.20;;
85835;SDS011;76292;47.678;19.066;2024-03-07T02:49:57;7.63;;;3.08;;
85835;SDS011;76292;47.678;19.066;2024-03-07T02:52:00;8.23;;;3.40;;
85835;SDS011;76292;47.678;19.066;2024-03-07T02:54:07;6.88;;;2.90;;
85835;SDS011;76292;47.678;19.066;2024-03-07T02:56:08;8.10;;;3.55;;
85835;SDS011;76292;47.678;19.066;2024-03-07T02:58:09;7.72;;;2.90;;
85835;SDS011;76292;47.678;19.066;2024-03-07T03:00:10;6.90;;;3.00;;
85835;SDS011;76292;47.678;19.066;2024-03-07T03:02:19;7.65;;;3.47;;
85835;SDS011;76292;47.678;19.066;2024-03-07T03:04:20;6.22;;;2.90;;
85835;SDS011;76292;47.678;19.066;2024-03-07T03:06:20;7.00;;;3.13;;
85835;SDS011;76292;47.678;19.066;2024-03-07T03:08:20;6.22;;;3.60;;
85835;SDS011;76292;47.678;19.066;2024-03-07T03:10:21;8.55;;;3.55;;
85835;SDS011;76292;47.678;19.066;2024-03-07T03:12:34;7.07;;;3.13;;
85835;SDS011;76292;47.678;19.066;2024-03-07T03:14:37;6.78;;;3.50;;
85835;SDS011;76292;47.678;19.066;2024-03-07T03:16:40;6.88;;;3.05;;
85835;SDS011;76292;47.678;19.066;2024-03-07T03:18:43;7.63;;;3.80;;
85835;SDS011;76292;47.678;19.066;2024-03-07T03:20:44;8.75;;;3.72;;
85835;SDS011;76292;47.678;19.066;2024-03-07T03:22:50;6.68;;;2.80;;
85835;SDS011;76292;47.678;19.066;2024-03-07T03:24:54;6.07;;;3.00;;
85835;SDS011;76292;47.678;19.066;2024-03-07T03:26:56;6.53;;;2.40;;
85835;SDS011;76292;47.678;19.066;2024-03-07T03:28:57;7.15;;;3.08;;
85835;SDS011;76292;47.678;19.066;2024-03-07T03:30:58;7.22;;;3.30;;
85835;SDS011;76292;47.678;19.066;2024-03-07T03:33:04;6.18;;;2.72;;
85835;SDS011;76292;47.678;19.066;2024-03-07T03:35:08;6.47;;;2.80;;
85835;SDS011;76292;47.678;19.066;2024-03-07T03:37:13;7.75;;;3.85;;
85835;SDS011;76292;47.678;19.066;2024-03-07T03:39:13;8.60;;;3.83;;
85835;SDS011;76292;47.678;19.066;2024-03-07T03:41:14;6.13;;;2.63;;
85835;SDS011;76292;47.678;19.066;2024-03-07T03:43:15;6.43;;;2.97;;
85835;SDS011;76292;47.678;19.066;2024-03-07T03:45:18;7.93;;;3.00;;
85835;SDS011;76292;47.678;19.066;2024-03-07T03:47:19;6.10;;;2.67;;
85835;SDS011;76292;47.678;19.066;2024-03-07T03:49:20;5.88;;;2.78;;
85835;SDS011;76292;47.678;19.066;2024-03-07T03:51:27;5.60;;;2.50;;
85835;SDS011;76292;47.678;19.066;2024-03-07T03:53:28;7.20;;;3.38;;
85835;SDS011;76292;47.678;19.066;2024-03-07T03:55:28;5.60;;;2.60;;
85835;SDS011;76292;47.678;19.066;2024-03-07T03:57:32;6.32;;;3.30;;
85835;SDS011;76292;47.678;19.066;2024-03-07T03:59:33;5.70;;;3.05;;
85835;SDS011;76292;47.678;19.066;2024-03-07T04:01:33;6.55;;;2.83;;
85835;SDS011;76292;47.678;19.066;2024-03-07T04:03:35;6.88;;;3.25;;
85835;SDS011;76292;47.678;19.066;2024-03-07T04:05:39;6.53;;;3.28;;
85835;SDS011;76292;47.678;19.066;2024-03-07T04:07:41;7.35;;;3.40;;
85835;SDS011;76292;47.678;19.066;2024-03-07T04:09:45;6.35;;;2.83;;
85835;SDS011;76292;47.678;19.066;2024-03-07T04:11:48;7.28;;;3.45;;
85835;SDS011;76292;47.678;19.066;2024-03-07T04:13:49;7.88;;;3.45;;
85835;SDS011;76292;47.678;19.066;2024-03-07T04:15:52;7.63;;;4.22;;
85835;SDS011;76292;47.678;19.066;2024-03-07T04:17:53;8.98;;;3.33;;
85835;SDS011;76292;47.678;19.066;2024-03-07T04:19:53;6.82;;;3.17;;
85835;SDS011;76292;47.678;19.066;2024-03-07T04:21:54;7.75;;;3.80;;
85835;SDS011;76292;47.678;19.066;2024-03-07T04:23:57;8.88;;;3.65;;
85835;SDS011;76292;47.678;19.066;2024-03-07T04:26:00;7.38;;;3.50;;
85835;SDS011;76292;47.678;19.066;2024-03-07T04:28:00;6.80;;;3.17;;
85835;SDS011;76292;47.678;19.066;2024-03-07T04:30:01;8.50;;;3.45;;
85835;SDS011;76292;47.678;19.066;2024-03-07T04:32:03;7.57;;;3.60;;
85835;SDS011;76292;47.678;19.066;2024-03-07T04:34:06;10.95;;;4.30;;
85835;SDS011;76292;47.678;19.066;2024-03-07T04:36:09;8.57;;;4.15;;
85835;SDS011;76292;47.678;19.066;2024-03-07T04:40:15;9.15;;;4.10;;
85835;SDS011;76292;47.678;19.066;2024-03-07T04:42:15;8.00;;;3.83;;
85835;SDS011;76292;47.678;19.066;2024-03-07T04:44:16;8.18;;;3.38;;
85835;SDS011;76292;47.678;19.066;2024-03-07T04:46:16;11.63;;;4.72;;
85835;SDS011;76292;47.678;19.066;2024-03-07T04:48:18;15.68;;;6.28;;
85835;SDS011;76292;47.678;19.066;2024-03-07T04:50:19;18.27;;;6.70;;
85835;SDS011;76292;47.678;19.066;2024-03-07T04:52:19;15.40;;;7.28;;
85835;SDS011;76292;47.678;19.066;2024-03-07T04:54:20;14.65;;;7.07;;
85835;SDS011;76292;47.678;19.066;2024-03-07T04:56:21;14.60;;;7.05;;
85835;SDS011;76292;47.678;19.066;2024-03-07T04:58:21;14.40;;;6.50;;
85835;SDS011;76292;47.678;19.066;2024-03-07T05:00:22;11.93;;;6.00;;
85835;SDS011;76292;47.678;19.066;2024-03-07T05:02:23;11.13;;;5.20;;
85835;SDS011;76292;47.678;19.066;2024-03-07T05:04:24;9.95;;;4.55;;
85835;SDS011;76292;47.678;19.066;2024-03-07T05:06:29;9.10;;;3.60;;
85835;SDS011;76292;47.678;19.066;2024-03-07T05:08:33;6.88;;;3.40;;
85835;SDS011;76292;47.678;19.066;2024-03-07T05:10:34;7.90;;;3.13;;
85835;SDS011;76292;47.678;19.066;2024-03-07T05:12:36;6.97;;;2.75;;
85835;SDS011;76292;47.678;19.066;2024-03-07T05:14:38;7.50;;;3.53;;
85835;SDS011;76292;47.678;19.066;2024-03-07T05:16:41;6.03;;;2.85;;
85835;SDS011;76292;47.678;19.066;2024-03-07T05:18:43;6.97;;;2.88;;
85835;SDS011;76292;47.678;19.066;2024-03-07T05:20:43;5.57;;;2.60;;
85835;SDS011;76292;47.678;19.066;2024-03-07T05:22:46;7.10;;;3.22;;
85835;SDS011;76292;47.678;19.066;2024-03-07T05:24:52;7.97;;;2.70;;
85835;SDS011;76292;47.678;19.066;2024-03-07T05:28:54;8.13;;;3.22;;
85835;SDS011;76292;47.678;19.066;2024-03-07T05:30:57;6.45;;;2.95;;
85835;SDS011;76292;47.678;19.066;2024-03-07T05:32:57;6.90;;;3.25;;
85835;SDS011;76292;47.678;19.066;2024-03-07T05:36:58;6.57;;;3.20;;
85835;SDS011;76292;47.678;19.066;2024-03-07T05:39:02;7.60;;;3.25;;
85835;SDS011;76292;47.678;19.066;2024-03-07T05:41:11;7.90;;;3.35;;
85835;SDS011;76292;47.678;19.066;2024-03-07T05:43:12;7.03;;;3.58;;
85835;SDS011;76292;47.678;19.066;2024-03-07T05:45:13;8.52;;;3.20;;
85835;SDS011;76292;47.678;19.066;2024-03-07T05:47:17;6.45;;;2.83;;
85835;SDS011;76292;47.678;19.066;2024-03-07T05:49:21;6.18;;;2.65;;
85835;SDS011;76292;47.678;19.066;2024-03-07T05:51:22;7.20;;;3.15;;
85835;SDS011;76292;47.678;19.066;2024-03-07T05:53:28;6.05;;;2.92;;
85835;SDS011;76292;47.678;19.066;2024-03-07T05:55:31;6.60;;;2.80;;
85835;SDS011;76292;47.678;19.066;2024-03-07T05:57:33;5.53;;;2.58;;
85835;SDS011;76292;47.678;19.066;2024-03-07T05:59:33;6.03;;;2.67;;
85835;SDS011;76292;47.678;19.066;2024-03-07T06:01:34;6.65;;;2.65;;
85835;SDS011;76292;47.678;19.066;2024-03-07T06:03:34;5.75;;;2.85;;
85835;SDS011;76292;47.678;19.066;2024-03-07T06:05:35;5.60;;;2.42;;
85835;SDS011;76292;47.678;19.066;2024-03-07T06:07:35;5.97;;;2.60;;
85835;SDS011;76292;47.678;19.066;2024-03-07T06:09:38;6.50;;;2.75;;
85835;SDS011;76292;47.678;19.066;2024-03-07T06:11:38;5.43;;;2.53;;
85835;SDS011;76292;47.678;19.066;2024-03-07T06:13:42;5.55;;;2.40;;
85835;SDS011;76292;47.678;19.066;2024-03-07T06:15:43;5.50;;;2.38;;
85835;SDS011;76292;47.678;19.066;2024-03-07T06:17:47;6.18;;;2.47;;
85835;SDS011;76292;47.678;19.066;2024-03-07T06:19:48;5.30;;;2.83;;
85835;SDS011;76292;47.678;19.066;2024-03-07T06:21:48;6.35;;;2.97;;
85835;SDS011;76292;47.678;19.066;2024-03-07T06:23:53;6.03;;;2.70;;
85835;SDS011;76292;47.678;19.066;2024-03-07T06:25:59;6.75;;;2.47;;
85835;SDS011;76292;47.678;19.066;2024-03-07T06:28:03;5.43;;;3.17;;
85835;SDS011;76292;47.678;19.066;2024-03-07T06:30:11;6.07;;;2.75;;
85835;SDS011;76292;47.678;19.066;2024-03-07T06:32:11;6.22;;;2.80;;
85835;SDS011;76292;47.678;19.066;2024-03-07T06:34:12;4.78;;;2.22;;
85835;SDS011;76292;47.678;19.066;2024-03-07T06:36:13;5.03;;;2.22;;
85835;SDS011;76292;47.678;19.066;2024-03-07T06:38:13;6.88;;;2.67;;
85835;SDS011;76292;47.678;19.066;2024-03-07T06:40:14;6.57;;;3.08;;
85835;SDS011;76292;47.678;19.066;2024-03-07T06:42:20;5.95;;;2.35;;
85835;SDS011;76292;47.678;19.066;2024-03-07T06:44:21;6.80;;;3.22;;
85835;SDS011;76292;47.678;19.066;2024-03-07T06:46:23;6.47;;;3.05;;
85835;SDS011;76292;47.678;19.066;2024-03-07T06:48:24;7.60;;;2.72;;
85835;SDS011;76292;47.678;19.066;2024-03-07T06:50:27;6.15;;;3.13;;
85835;SDS011;76292;47.678;19.066;2024-03-07T06:52:29;7.20;;;2.20;;
85835;SDS011;76292;47.678;19.066;2024-03-07T06:54:32;6.30;;;2.78;;
85835;SDS011;76292;47.678;19.066;2024-03-07T06:56:35;5.93;;;2.65;;
85835;SDS011;76292;47.678;19.066;2024-03-07T06:58:40;6.18;;;2.42;;
85835;SDS011;76292;47.678;19.066;2024-03-07T07:00:45;7.53;;;3.28;;
85835;SDS011;76292;47.678;19.066;2024-03-07T07:02:46;7.85;;;2.85;;
85835;SDS011;76292;47.678;19.066;2024-03-07T07:04:47;5.95;;;2.88;;
85835;SDS011;76292;47.678;19.066;2024-03-07T07:06:52;7.38;;;3.10;;
85835;SDS011;76292;47.678;19.066;2024-03-07T07:08:52;5.70;;;3.00;;
85835;SDS011;76292;47.678;19.066;2024-03-07T07:10:53;5.75;;;2.65;;
85835;SDS011;76292;47.678;19.066;2024-03-07T07:15:32;5.60;;;2.45;;
85835;SDS011;76292;47.678;19.066;2024-03-07T07:17:32;6.95;;;2.88;;
85835;SDS011;76292;47.678;19.066;2024-03-07T07:19:35;7.88;;;3.20;;
85835;SDS011;76292;47.678;19.066;2024-03-07T07:21:35;8.77;;;2.83;;
85835;SDS011;76292;47.678;19.066;2024-03-07T07:23:36;6.20;;;2.80;;
85835;SDS011;76292;47.678;19.066;2024-03-07T07:25:37;6.00;;;3.08;;
85835;SDS011;76292;47.678;19.066;2024-03-07T07:27:37;6.03;;;2.88;;
85835;SDS011;76292;47.678;19.066;2024-03-07T07:29:37;6.70;;;3.10;;
85835;SDS011;76292;47.678;19.066;2024-03-07T07:31:39;6.50;;;2.83;;
85835;SDS011;76292;47.678;19.066;2024-03-07T07:33:42;5.63;;;2.50;;
85835;SDS011;76292;47.678;19.066;2024-03-07T07:35:45;5.75;;;2.70;;
85835;SDS011;76292;47.678;19.066;2024-03-07T07:37:48;5.72;;;3.17;;
85835;SDS011;76292;47.678;19.066;2024-03-07T07:39:53;6.03;;;2.85;;
85835;SDS011;76292;47.678;19.066;2024-03-07T07:41:53;6.13;;;3.13;;
85835;SDS011;76292;47.678;19.066;2024-03-07T07:43:54;7.32;;;3.13;;
85835;SDS011;76292;47.678;19.066;2024-03-07T07:45:54;6.57;;;2.78;;
85835;SDS011;76292;47.678;19.066;2024-03-07T07:47:55;6.28;;;3.30;;
85835;SDS011;76292;47.678;19.066;2024-03-07T07:49:55;6.60;;;2.63;;
85835;SDS011;76292;47.678;19.066;2024-03-07T07:51:55;7.47;;;2.83;;
85835;SDS011;76292;47.678;19.066;2024-03-07T07:53:56;5.30;;;3.08;;
85835;SDS011;76292;47.678;19.066;2024-03-07T07:55:56;6.63;;;2.63;;
85835;SDS011;76292;47.678;19.066;2024-03-07T07:58:02;5.47;;;2.50;;
85835;SDS011;76292;47.678;19.066;2024-03-07T08:00:05;5.85;;;2.75;;
85835;SDS011;76292;47.678;19.066;2024-03-07T08:02:08;5.63;;;2.78;;
85835;SDS011;76292;47.678;19.066;2024-03-07T08:04:09;4.65;;;2.25;;
85835;SDS011;76292;47.678;19.066;2024-03-07T08:06:10;5.38;;;2.55;;
85835;SDS011;76292;47.678;19.066;2024-03-07T08:08:15;8.20;;;2.58;;
85835;SDS011;76292;47.678;19.066;2024-03-07T08:12:17;6.18;;;2.83;;
85835;SDS011;76292;47.678;19.066;2024-03-07T08:14:20;5.78;;;2.85;;
85835;SDS011;76292;47.678;19.066;2024-03-07T08:16:20;6.78;;;3.28;;
85835;SDS011;76292;47.678;19.066;2024-03-07T08:18:21;5.45;;;2.67;;
85835;SDS011;76292;47.678;19.066;2024-03-07T08:20:21;5.68;;;2.38;;
85835;SDS011;76292;47.678;19.066;2024-03-07T08:22:23;6.15;;;3.60;;
85835;SDS011;76292;47.678;19.066;2024-03-07T08:24:24;5.65;;;2.65;;
85835;SDS011;76292;47.678;19.066;2024-03-07T08:26:28;6.45;;;3.20;;
85835;SDS011;76292;47.678;19.066;2024-03-07T08:28:28;6.00;;;2.97;;
85835;SDS011;76292;47.678;19.066;2024-03-07T08:30:28;6.22;;;3.28;;
85835;SDS011;76292;47.678;19.066;2024-03-07T08:32:29;9.15;;;2.90;;
85835;SDS011;76292;47.678;19.066;2024-03-07T08:34:29;5.97;;;2.63;;
85835;SDS011;76292;47.678;19.066;2024-03-07T08:36:32;6.78;;;3.40;;
85835;SDS011;76292;47.678;19.066;2024-03-07T08:38:36;5.85;;;2.60;;
85835;SDS011;76292;47.678;19.066;2024-03-07T08:40:39;7.72;;;3.78;;
85835;SDS011;76292;47.678;19.066;2024-03-07T08:42:40;8.25;;;3.33;;
85835;SDS011;76292;47.678;19.066;2024-03-07T08:44:41;6.07;;;2.92;;
85835;SDS011;76292;47.678;19.066;2024-03-07T08:46:43;6.00;;;3.03;;
85835;SDS011;76292;47.678;19.066;2024-03-07T08:48:44;6.30;;;3.28;;
85835;SDS011;76292;47.678;19.066;2024-03-07T08:50:44;6.22;;;3.08;;
85835;SDS011;76292;47.678;19.066;2024-03-07T08:52:45;6.70;;;3.00;;
85835;SDS011;76292;47.678;19.066;2024-03-07T08:54:51;5.90;;;2.97;;
85835;SDS011;76292;47.678;19.066;2024-03-07T08:56:51;5.88;;;3.67;;
85835;SDS011;76292;47.678;19.066;2024-03-07T08:58:51;6.90;;;3.25;;
85835;SDS011;76292;47.678;19.066;2024-03-07T09:00:54;5.80;;;2.75;;
85835;SDS011;76292;47.678;19.066;2024-03-07T09:02:55;6.93;;;2.22;;
85835;SDS011;76292;47.678;19.066;2024-03-07T09:05:00;6.07;;;2.85;;
85835;SDS011;76292;47.678;19.066;2024-03-07T09:07:01;5.10;;;2.30;;
85835;SDS011;76292;47.678;19.066;2024-03-07T09:09:01;6.03;;;2.50;;
85835;SDS011;76292;47.678;19.066;2024-03-07T09:11:04;5.45;;;2.88;;
85835;SDS011;76292;47.678;19.066;2024-03-07T09:13:07;5.55;;;2.72;;
85835;SDS011;76292;47.678;19.066;2024-03-07T09:15:08;6.40;;;2.58;;
85835;SDS011;76292;47.678;19.066;2024-03-07T09:17:16;6.50;;;3.10;;
85835;SDS011;76292;47.678;19.066;2024-03-07T09:19:17;6.88;;;2.67;;
85835;SDS011;76292;47.678;19.066;2024-03-07T09:21:22;6.85;;;3.33;;
85835;SDS011;76292;47.678;19.066;2024-03-07T09:23:22;5.70;;;2.70;;
85835;SDS011;76292;47.678;19.066;2024-03-07T09:25:25;8.20;;;3.20;;
85835;SDS011;76292;47.678;19.066;2024-03-07T09:27:25;7.20;;;2.72;;
85835;SDS011;76292;47.678;19.066;2024-03-07T09:29:28;6.78;;;3.15;;
85835;SDS011;76292;47.678;19.066;2024-03-07T09:31:28;5.97;;;3.40;;
85835;SDS011;76292;47.678;19.066;2024-03-07T09:33:31;7.15;;;3.38;;
85835;SDS011;76292;47.678;19.066;2024-03-07T09:35:31;6.90;;;3.15;;
85835;SDS011;76292;47.678;19.066;2024-03-07T09:37:32;7.43;;;3.20;;
85835;SDS011;76292;47.678;19.066;2024-03-07T09:39:33;7.07;;;3.10;;
85835;SDS011;76292;47.678;19.066;2024-03-07T09:41:36;6.57;;;3.63;;
85835;SDS011;76292;47.678;19.066;2024-03-07T09:43:36;7.05;;;3.30;;
85835;SDS011;76292;47.678;19.066;2024-03-07T09:45:38;6.60;;;3.33;;
85835;SDS011;76292;47.678;19.066;2024-03-07T09:47:40;8.45;;;3.40;;
85835;SDS011;76292;47.678;19.066;2024-03-07T09:49:41;8.35;;;4.00;;
85835;SDS011;76292;47.678;19.066;2024-03-07T09:51:42;8.02;;;3.92;;
85835;SDS011;76292;47.678;19.066;2024-03-07T09:53:44;8.48;;;3.50;;
85835;SDS011;76292;47.678;19.066;2024-03-07T09:55:50;7.32;;;3.53;;
85835;SDS011;76292;47.678;19.066;2024-03-07T09:57:54;7.90;;;3.92;;
85835;SDS011;76292;47.678;19.066;2024-03-07T09:59:55;8.30;;;3.50;;
85835;SDS011;76292;47.678;19.066;2024-03-07T10:01:56;8.98;;;3.80;;
85835;SDS011;76292;47.678;19.066;2024-03-07T10:03:58;8.10;;;3.88;;
85835;SDS011;76292;47.678;19.066;2024-03-07T10:06:11;8.25;;;4.15;;
85835;SDS011;76292;47.678;19.066;2024-03-07T10:08:12;8.27;;;3.72;;
85835;SDS011;76292;47.678;19.066;2024-03-07T10:10:13;7.50;;;4.85;;
85835;SDS011;76292;47.678;19.066;2024-03-07T10:12:14;9.80;;;3.65;;
85835;SDS011;76292;47.678;19.066;2024-03-07T10:14:15;10.20;;;3.90;;
85835;SDS011;76292;47.678;19.066;2024-03-07T10:16:15;8.05;;;4.32;;
85835;SDS011;76292;47.678;19.066;2024-03-07T10:18:18;7.90;;;3.75;;
85835;SDS011;76292;47.678;19.066;2024-03-07T10:20:22;11.10;;;4.63;;
85835;SDS011;76292;47.678;19.066;2024-03-07T10:22:24;8.15;;;4.45;;
85835;SDS011;76292;47.678;19.066;2024-03-07T10:24:25;10.32;;;4.15;;
85835;SDS011;76292;47.678;19.066;2024-03-07T10:26:25;8.63;;;4.03;;
85835;SDS011;76292;47.678;19.066;2024-03-07T10:28:28;9.65;;;4.70;;
85835;SDS011;76292;47.678;19.066;2024-03-07T10:30:40;9.88;;;5.13;;
85835;SDS011;76292;47.678;19.066;2024-03-07T10:32:41;8.90;;;4.43;;
85835;SDS011;76292;47.678;19.066;2024-03-07T10:34:42;7.68;;;4.22;;
85835;SDS011;76292;47.678;19.066;2024-03-07T10:36:46;32.45;;;17.88;;
85835;SDS011;76292;47.678;19.066;2024-03-07T10:38:46;11.23;;;6.07;;
85835;SDS011;76292;47.678;19.066;2024-03-07T10:40:47;8.68;;;4.72;;
85835;SDS011;76292;47.678;19.066;2024-03-07T10:42:48;9.38;;;4.60;;
85835;SDS011;76292;47.678;19.066;2024-03-07T10:44:54;8.18;;;5.20;;
85835;SDS011;76292;47.678;19.066;2024-03-07T10:47:01;9.25;;;4.03;;
85835;SDS011;76292;47.678;19.066;2024-03-07T10:49:03;9.00;;;3.45;;
85835;SDS011;76292;47.678;19.066;2024-03-07T10:51:26;7.53;;;3.47;;
85835;SDS011;76292;47.678;19.066;2024-03-07T10:58:13;8.23;;;4.40;;
85835;SDS011;76292;47.678;19.066;2024-03-07T11:00:21;11.40;;;4.82;;
85835;SDS011;76292;47.678;19.066;2024-03-07T11:02:44;15.48;;;6.97;;
85835;SDS011;76292;47.678;19.066;2024-03-07T11:04:47;8.57;;;4.75;;
85835;SDS011;76292;47.678;19.066;2024-03-07T11:06:54;9.23;;;4.20;;
85835;SDS011;76292;47.678;19.066;2024-03-07T11:08:59;21.63;;;11.70;;
85835;SDS011;76292;47.678;19.066;2024-03-07T11:11:00;9.18;;;4.72;;
85835;SDS011;76292;47.678;19.066;2024-03-07T11:13:04;8.45;;;4.35;;
85835;SDS011;76292;47.678;19.066;2024-03-07T11:15:09;10.43;;;5.03;;
85835;SDS011;76292;47.678;19.066;2024-03-07T11:17:14;11.88;;;5.88;;
85835;SDS011;76292;47.678;19.066;2024-03-07T11:21:41;16.83;;;9.32;;
85835;SDS011;76292;47.678;19.066;2024-03-07T11:23:46;31.33;;;16.45;;
85835;SDS011;76292;47.678;19.066;2024-03-07T11:25:47;25.58;;;12.90;;
85835;SDS011;76292;47.678;19.066;2024-03-07T11:27:51;33.42;;;17.40;;
85835;SDS011;76292;47.678;19.066;2024-03-07T11:29:53;11.15;;;5.43;;
85835;SDS011;76292;47.678;19.066;2024-03-07T11:31:54;8.63;;;4.70;;
85835;SDS011;76292;47.678;19.066;2024-03-07T11:36:15;10.65;;;4.88;;
85835;SDS011;76292;47.678;19.066;2024-03-07T11:38:49;14.43;;;5.82;;
85835;SDS011;76292;47.678;19.066;2024-03-07T11:40:50;11.48;;;5.97;;
85835;SDS011;76292;47.678;19.066;2024-03-07T11:42:53;10.27;;;4.60;;
85835;SDS011;76292;47.678;19.066;2024-03-07T11:45:00;10.55;;;6.28;;
85835;SDS011;76292;47.678;19.066;2024-03-07T11:47:03;6.65;;;3.17;;
85835;SDS011;76292;47.678;19.066;2024-03-07T11:49:08;12.35;;;5.35;;
85835;SDS011;76292;47.678;19.066;2024-03-07T11:51:14;10.73;;;5.45;;
85835;SDS011;76292;47.678;19.066;2024-03-07T11:53:17;12.27;;;5.00;;
85835;SDS011;76292;47.678;19.066;2024-03-07T11:55:18;12.38;;;5.18;;
85835;SDS011;76292;47.678;19.066;2024-03-07T11:59:24;10.38;;;5.63;;
85835;SDS011;76292;47.678;19.066;2024-03-07T12:01:26;7.60;;;3.97;;
85835;SDS011;76292;47.678;19.066;2024-03-07T12:03:28;10.10;;;5.60;;
85835;SDS011;76292;47.678;19.066;2024-03-07T12:05:32;9.15;;;4.93;;
85835;SDS011;76292;47.678;19.066;2024-03-07T12:07:33;9.68;;;4.68;;
85835;SDS011;76292;47.678;19.066;2024-03-07T12:09:38;11.38;;;6.28;;
85835;SDS011;76292;47.678;19.066;2024-03-07T12:11:45;9.40;;;4.88;;
85835;SDS011;76292;47.678;19.066;2024-03-07T12:13:52;8.63;;;5.32;;
85835;SDS011;76292;47.678;19.066;2024-03-07T12:15:55;9.13;;;4.80;;
85835;SDS011;76292;47.678;19.066;2024-03-07T12:17:58;9.65;;;5.15;;
85835;SDS011;76292;47.678;19.066;2024-03-07T12:20:02;12.57;;;4.65;;
85835;SDS011;76292;47.678;19.066;2024-03-07T12:22:22;11.05;;;4.90;;
85835;SDS011;76292;47.678;19.066;2024-03-07T12:24:23;9.82;;;5.13;;
85835;SDS011;76292;47.678;19.066;2024-03-07T12:26:26;9.90;;;4.68;;
85835;SDS011;76292;47.678;19.066;2024-03-07T12:28:30;10.07;;;5.13;;
85835;SDS011;76292;47.678;19.066;2024-03-07T12:30:34;8.75;;;4.13;;